Home   Weather   Russia   Pyatigorsk   Past weeks
Flag for Russia

Past Weather in Pyatigorsk, Russia — Yesterday and Last 2 Weeks

Currently: 84 °F. Clear. (Weather station: Mineral'Nye Vody, Russia). See more current weather

Past Weather in Pyatigorsk — Graph

°F

Pyatigorsk Temperature Yesterday

Maximum temperature yesterday: 86 °F (at 2:30 pm)
Minimum temperature yesterday: 57 °F (at 4:30 am)
Average temperature yesterday: 74 °F

High & Low Weather Summary for the Past Weeks

 TemperatureHumidityPressure
High88 °F (Jun 23, 2:00 pm)100% (Jun 14, 1:00 am)30.07 "Hg (Jun 14, 1:00 am)
Low52 °F (Jun 9, 3:30 am)38% (Jun 23, 1:30 pm)29.65 "Hg (Jun 17, 12:00 am)
Average70 °F71%29.89 "Hg
* Reported Jun 8 5:00 pm — Jun 23 5:30 pm, Pyatigorsk. Weather by CustomWeather, © 2021

Note: Actual official high and low records may vary slightly from our data, if they occured in-between our weather recording intervals... More about our weather records

Pyatigorsk Weather History for the Previous 24 Hours

Scroll right to see more
 ConditionsComfort  
Time TempWeatherWind HumidityBarometerVisibility
5:30 pm
Wed, Jun 23
86 °FClear.6 mph43%29.89 "HgN/A
5:00 pm88 °FClear.8 mph43%29.89 "HgN/A
4:30 pm88 °FClear.8 mph40%29.89 "HgN/A
4:00 pm88 °FClear.8 mph43%29.89 "HgN/A
3:30 pm88 °FClear.10 mph43%29.89 "HgN/A
3:00 pm88 °FClear.8 mph43%29.89 "HgN/A
2:30 pm88 °FClear.8 mph40%29.89 "HgN/A
2:00 pm88 °FClear.8 mph38%29.89 "HgN/A
1:30 pm86 °FClear.8 mph38%29.89 "HgN/A
1:00 pm86 °FClear.6 mph40%29.89 "HgN/A
12:30 pm86 °FClear.8 mph40%29.92 "HgN/A
12:00 pm84 °FClear.8 mph43%29.92 "HgN/A
11:30 am84 °FClear.8 mph43%29.92 "HgN/A
10:30 am82 °FClear.10 mph48%29.92 "HgN/A
10:00 am81 °FPassing clouds.10 mph54%29.92 "HgN/A
9:30 am79 °FPassing clouds.13 mph61%29.92 "HgN/A
9:00 am77 °FScattered clouds.13 mph69%29.92 "HgN/A
8:30 am77 °FScattered clouds.13 mph69%29.92 "HgN/A
8:00 am75 °FClear.15 mph74%29.92 "HgN/A
7:30 am73 °FClear.15 mph78%29.92 "HgN/A
7:00 am72 °FThundershowers. Scattered clouds.10 mph73%29.92 "HgN/A
6:30 am68 °FThundershowers. Scattered clouds.8 mph88%29.89 "HgN/A
6:00 am66 °FClear.8 mph88%29.89 "HgN/A
5:30 am63 °FClear.8 mph94%29.89 "HgN/A
5:00 am63 °FClear.8 mph88%29.89 "HgN/A
4:30 am61 °FClear.13 mph88%29.89 "HgN/A
4:00 am61 °FClear.6 mph94%29.89 "HgN/A
3:30 am63 °FClear.6 mph88%29.89 "HgN/A
3:00 am64 °FClear.6 mph88%29.89 "HgN/A
2:30 am64 °FClear.6 mph88%29.89 "HgN/A
2:00 am66 °FClear.6 mph88%29.89 "HgN/A
1:30 am68 °FClear.6 mph88%29.89 "HgN/A
1:00 am68 °FClear.3 mph88%29.89 "HgN/A
12:30 am70 °FClear.6 mph83%29.89 "HgN/A
12:00 am72 °FClear.6 mph83%29.89 "HgN/A
11:30 pm
Tue, Jun 22
72 °FPassing clouds.8 mph83%29.89 "HgN/A
11:00 pm75 °FThundershowers. Passing clouds.10 mph74%29.89 "HgN/A
10:30 pm75 °FThunderstorms. Passing clouds.10 mph78%29.89 "HgN/A
10:00 pm75 °FThundershowers. Passing clouds.10 mph78%29.92 "HgN/A
9:30 pm77 °FThundershowers. Passing clouds.15 mph74%29.92 "HgN/A
9:00 pm77 °FThundershowers. Passing clouds.17 mph74%29.92 "HgN/A
8:30 pm77 °FThundershowers. Passing clouds.13 mph69%29.89 "HgN/A
8:00 pm79 °FClear.10 mph70%29.89 "HgN/A
7:30 pm79 °FPassing clouds.6 mph74%29.86 "HgN/A
7:00 pm79 °FClear.8 mph70%29.86 "HgN/A
6:30 pm81 °FClear.6 mph66%29.86 "HgN/A
6:00 pm82 °FPassing clouds.3 mph66%29.83 "HgN/A
Weather by CustomWeather, © 2021

See weather overview